Time;durP1;ratioP1;P1;durP2;ratioP2;P2;SDS_P1;SDS_P2;PMS_P1;PMS_P2;Temp;Humidity;BMP_temperature;BMP_pressure;BME280_temperature;BME280_humidity;BME280_pressure;Samples;Min_cycle;Max_cycle;Signal;HPM_P1;HPM_P2
2023/01/23 07:01:46;;;;;;;30.35;21.90;;;;;;;-145.79;83.17;80687.38;5322581;27;20388;-70
2023/01/23 07:04:18;;;;;;;32.38;22.33;;;;;;;-145.79;83.74;80685.25;5322243;28;20042;-70
2023/01/23 07:06:49;;;;;;;30.65;22.73;;;;;;;-145.79;84.07;80693.75;5304736;28;20021;-70
2023/01/23 07:09:21;;;;;;;31.42;21.13;;;;;;;-145.79;84.12;80683.16;5322387;28;20024;-71
2023/01/23 07:11:52;;;;;;;30.75;23.30;;;;;;;-145.79;84.05;80683.16;5322289;28;20024;-71
2023/01/23 07:14:25;;;;;;;28.35;21.08;;;;;;;-145.79;84.29;80681.03;5321199;28;20505;-70
2023/01/23 07:16:57;;;;;;;26.27;20.42;;;;;;;-145.79;83.92;80674.66;5322318;28;20023;-71
2023/01/23 07:19:28;;;;;;;25.08;21.05;;;;;;;-145.79;83.96;80672.53;5321249;28;20110;-70
2023/01/23 07:22:00;;;;;;;26.77;19.73;;;;;;;-145.79;83.78;80676.78;5322440;28;20115;-71
2023/01/23 07:24:31;;;;;;;30.30;20.92;;;;;;;-145.79;83.79;80661.94;5289441;28;20020;-71
2023/01/23 07:27:03;;;;;;;29.17;20.90;;;;;;;-145.79;83.93;80664.06;5298578;28;20020;-71
2023/01/23 07:29:34;;;;;;;26.25;20.17;;;;;;;-145.79;83.10;80685.25;5299107;28;20079;-71
2023/01/23 07:32:05;;;;;;;29.52;19.83;;;;;;;-145.79;83.54;80676.78;5311579;28;20383;-70
2023/01/23 07:34:37;;;;;;;30.63;20.67;;;;;;;-145.79;83.64;80676.78;5299362;28;20046;-70
2023/01/23 07:37:08;;;;;;;27.83;20.98;;;;;;;-145.79;83.63;80685.25;5298520;28;20494;-70
2023/01/23 07:39:40;;;;;;;28.27;20.27;;;;;;;-145.79;83.61;80681.03;5319835;28;20386;-71
2023/01/23 07:42:11;;;;;;;24.10;20.10;;;;;;;-145.79;83.47;80674.66;5292513;28;20025;-70
2023/01/23 07:44:42;;;;;;;24.25;19.73;;;;;;;-145.79;83.22;80676.78;5318810;28;20024;-71
2023/01/23 07:47:13;;;;;;;26.50;20.25;;;;;;;-145.79;83.49;80674.66;5303724;28;20082;-70
2023/01/23 07:49:45;;;;;;;26.70;20.63;;;;;;;-145.79;83.28;80681.03;5313568;28;20023;-71
2023/01/23 07:52:16;;;;;;;25.90;19.75;;;;;;;-145.79;83.17;80674.66;5302039;28;20037;-71
2023/01/23 07:54:47;;;;;;;25.88;20.30;;;;;;;-145.79;83.15;80672.53;5304988;28;20031;-71
2023/01/23 07:57:19;;;;;;;29.50;19.77;;;;;;;-145.79;83.07;80670.41;5303812;28;20096;-71
2023/01/23 07:59:50;;;;;;;27.58;20.45;;;;;;;-145.79;82.71;80670.41;5308767;28;20075;-71
2023/01/23 08:02:21;;;;;;;24.13;18.90;;;;;;;-145.79;82.80;80681.03;5298116;28;20030;-71
2023/01/23 08:04:53;;;;;;;23.30;19.25;;;;;;;-145.79;83.25;80659.81;5302117;28;20027;-71
2023/01/23 08:07:24;;;;;;;24.30;19.73;;;;;;;-145.79;83.13;80657.69;5308948;28;20475;-70
2023/01/23 08:09:55;;;;;;;26.38;19.38;;;;;;;-145.79;82.40;80672.53;5302828;28;20103;-71
2023/01/23 08:12:27;;;;;;;28.02;21.02;;;;;;;-145.79;82.74;80666.16;5300946;28;20062;-71
2023/01/23 08:14:58;;;;;;;25.90;20.13;;;;;;;-145.79;82.49;80672.53;5299440;28;20102;-70
2023/01/23 08:17:29;;;;;;;23.08;18.77;;;;;;;-145.79;82.84;80655.56;5288158;28;20032;-71
2023/01/23 08:20:01;;;;;;;24.63;19.20;;;;;;;-145.79;82.46;80653.44;5301835;28;20111;-71
2023/01/23 08:22:39;;;;;;;25.77;20.23;;;;;;;-145.79;82.64;80655.56;5289505;28;20081;-72
2023/01/23 08:25:10;;;;;;;24.20;20.05;;;;;;;-145.79;82.26;80655.56;5296134;28;20017;-73
2023/01/23 08:27:42;;;;;;;22.30;18.65;;;;;;;-145.79;82.14;80659.81;5288009;28;20027;-71
2023/01/23 08:30:13;;;;;;;23.20;18.73;;;;;;;-145.79;82.25;80651.31;5303018;28;20020;-71
2023/01/23 08:32:44;;;;;;;26.10;19.58;;;;;;;-145.79;82.22;80651.31;5280565;28;20039;-72
2023/01/23 08:35:16;;;;;;;22.98;20.05;;;;;;;-145.79;82.17;80638.59;5295192;28;20096;-72
2023/01/23 08:37:47;;;;;;;26.52;20.23;;;;;;;-145.79;81.84;80651.31;5299044;28;20092;-72
2023/01/23 08:40:18;;;;;;;26.05;19.88;;;;;;;-145.79;81.62;80676.78;5289127;28;20025;-72
2023/01/23 08:42:50;;;;;;;23.08;18.52;;;;;;;-145.79;82.26;80661.94;5298295;28;20107;-72
2023/01/23 08:45:21;;;;;;;25.00;19.67;;;;;;;-145.79;81.90;80683.16;5289095;28;20050;-71
2023/01/23 08:47:52;;;;;;;25.15;19.50;;;;;;;-145.79;82.44;80683.16;5287616;28;20428;-71
2023/01/23 08:50:23;;;;;;;25.98;20.45;;;;;;;-145.79;82.79;80672.53;5300389;28;20023;-71
2023/01/23 08:52:55;;;;;;;25.98;19.80;;;;;;;-145.79;82.50;80659.81;5291391;28;20024;-71
2023/01/23 08:55:27;;;;;;;27.20;21.20;;;;;;;-145.79;82.71;80670.41;5293389;28;20077;-70
2023/01/23 08:57:59;;;;;;;23.50;19.23;;;;;;;-145.79;82.46;80670.41;5275131;28;20025;-72
2023/01/23 09:00:33;;;;;;;23.02;19.30;;;;;;;-145.79;82.20;80678.91;5298768;28;20044;-72
2023/01/23 09:03:05;;;;;;;21.40;15.83;;;;;;;-145.79;82.35;80664.06;5281364;28;20031;-71
2023/01/23 09:05:37;;;;;;;25.48;19.17;;;;;;;-145.79;82.49;80649.19;5282828;28;20033;-72
2023/01/23 09:08:09;;;;;;;24.90;20.48;;;;;;;-145.79;81.94;80666.16;5297779;28;20024;-72
2023/01/23 09:10:40;;;;;;;25.58;19.50;;;;;;;-145.79;81.89;80659.81;5289733;28;20030;-72
2023/01/23 09:13:12;;;;;;;23.35;19.48;;;;;;;-145.79;81.99;80655.56;5294624;28;20024;-71
2023/01/23 09:15:43;;;;;;;24.77;18.95;;;;;;;-145.79;82.19;80661.94;5298793;28;20086;-73
2023/01/23 09:18:14;;;;;;;23.33;18.38;;;;;;;-145.79;81.94;80659.81;5282237;28;20029;-70
2023/01/23 09:20:45;;;;;;;24.77;20.00;;;;;;;-145.79;81.71;80672.53;5297648;28;20032;-72
2023/01/23 09:23:17;;;;;;;22.35;18.88;;;;;;;-145.79;82.09;80657.69;5290499;28;20020;-72
2023/01/23 09:25:48;;;;;;;24.95;19.30;;;;;;;-145.79;82.13;80655.56;5290179;28;20107;-72
2023/01/23 09:28:20;;;;;;;23.88;20.27;;;;;;;-145.79;82.00;80649.19;5299892;28;20090;-72
2023/01/23 09:30:52;;;;;;;20.02;17.27;;;;;;;-145.79;81.93;80634.34;5290997;28;20024;-72
2023/01/23 09:33:26;;;;;;;21.50;18.10;;;;;;;-145.79;81.60;80632.22;5292300;28;20029;-72
2023/01/23 09:35:57;;;;;;;24.05;18.85;;;;;;;-145.79;81.76;80625.88;5272461;28;20028;-72
2023/01/23 09:38:29;;;;;;;26.02;20.33;;;;;;;-145.79;81.46;80617.38;5300350;28;20035;-71
2023/01/23 09:41:08;;;;;;;20.80;18.38;;;;;;;-145.79;81.55;80608.91;5279539;28;20115;-71
2023/01/23 09:43:55;;;;;;;21.27;17.75;;;;;;;-145.79;81.08;80608.91;5286265;28;20025;-72
2023/01/23 09:46:45;;;;;;;20.52;17.27;;;;;;;-145.79;81.07;80613.13;5299386;28;20448;-70
2023/01/23 09:49:16;;;;;;;22.73;19.38;;;;;;;-145.79;80.78;80615.25;5293361;28;20016;-72
2023/01/23 09:51:57;;;;;;;23.40;18.02;;;;;;;-145.79;80.66;80621.63;5285400;28;20025;-73
2023/01/23 09:54:31;;;;;;;24.58;18.92;;;;;;;-145.79;80.78;80632.22;5298665;28;20074;-72
2023/01/23 09:57:27;;;;;;;23.25;18.05;;;;;;;-145.79;80.99;80628.00;5288719;28;20030;-72
2023/01/23 10:00:14;;;;;;;19.87;16.60;;;;;;;-145.79;81.15;80632.22;5287782;28;20048;-72
2023/01/23 10:02:45;;;;;;;24.13;18.23;;;;;;;-145.79;81.18;80621.63;5273943;28;20024;-72
2023/01/23 10:05:21;;;;;;;21.63;17.52;;;;;;;-145.79;80.79;80628.00;5293387;28;20490;-72
2023/01/23 10:08:14;;;;;;;20.38;16.80;;;;;;;-145.79;80.97;80634.34;5298435;28;20043;-72
2023/01/23 10:10:53;;;;;;;20.50;17.80;;;;;;;-145.79;81.26;80617.38;5275235;28;20055;-72
2023/01/23 10:13:39;;;;;;;23.27;19.23;;;;;;;-145.79;80.82;80617.38;5285522;28;20480;-72
2023/01/23 10:16:10;;;;;;;;;;;;;;;-145.79;80.86;80600.41;5296399;28;20169;-71
2023/01/23 10:19:14;;;;;;;20.70;17.42;;;;;;;-145.79;80.52;80604.66;5288576;28;20006;-73
2023/01/23 10:21:54;;;;;;;25.65;19.75;;;;;;;-145.79;80.36;80606.78;5288710;28;20032;-72
2023/01/23 10:24:54;;;;;;;20.58;17.05;;;;;;;-145.79;80.47;80606.78;5299778;28;20077;-71
2023/01/23 10:27:33;;;;;;;21.63;18.25;;;;;;;-145.79;80.61;80617.38;5285702;28;20114;-73
2023/01/23 10:30:27;;;;;;;21.40;19.10;;;;;;;-145.79;80.60;80619.50;5282957;28;20036;-73
2023/01/23 10:33:13;;;;;;;22.38;17.75;;;;;;;-145.79;80.73;80611.00;5295588;28;20012;-74
2023/01/23 10:36:01;;;;;;;21.65;17.80;;;;;;;-145.79;80.11;80600.41;5296935;28;20035;-73
2023/01/23 10:38:48;;;;;;;23.35;17.65;;;;;;;-145.79;80.09;80591.94;5269903;28;20020;-73
2023/01/23 10:41:20;;;;;;;39.10;30.08;;;;;;;-145.79;79.66;80611.00;5292187;28;20438;-72
2023/01/23 10:43:53;;;;;;;24.85;18.63;;;;;;;-145.79;80.18;80613.13;5274396;28;20056;-73
2023/01/23 10:46:37;;;;;;;21.55;18.00;;;;;;;-145.79;80.18;80604.66;5298329;28;20429;-73
2023/01/23 10:49:26;;;;;;;22.30;16.55;;;;;;;-145.79;80.06;80587.69;5291530;28;20408;-73
2023/01/23 10:51:58;;;;;;;20.75;17.85;;;;;;;-145.79;79.55;80613.13;5284499;28;20529;-73
2023/01/23 10:54:44;;;;;;;20.80;17.98;;;;;;;-145.79;79.88;80604.66;5299181;28;20124;-73
2023/01/23 10:57:26;;;;;;;21.17;17.95;;;;;;;-145.79;80.09;80581.31;5286011;28;20030;-73
2023/01/23 11:00:07;;;;;;;21.88;17.58;;;;;;;-145.79;79.98;80577.06;5287597;28;20469;-72
2023/01/23 11:02:42;;;;;;;21.42;16.48;;;;;;;-145.79;79.82;80581.31;5268729;28;20051;-72
2023/01/23 11:05:32;;;;;;;;;;;;;;;-145.79;79.88;80555.84;5278900;28;20024;-72
2023/01/23 11:08:21;;;;;;;20.30;16.17;;;;;;;-145.79;79.78;80566.47;5298487;28;19912;-71
2023/01/23 11:11:07;;;;;;;20.50;16.50;;;;;;;-145.79;79.66;80553.75;5289138;28;20111;-71
2023/01/23 11:13:39;;;;;;;21.50;16.67;;;;;;;-145.79;78.96;80541.00;5288328;28;20025;-72
2023/01/23 11:16:16;;;;;;;22.63;18.08;;;;;;;-145.79;78.90;80538.88;5298979;28;20028;-72
2023/01/23 11:18:56;;;;;;;19.70;16.77;;;;;;;-145.79;78.46;80553.75;5287242;28;20032;-72
2023/01/23 11:21:32;;;;;;;24.83;18.02;;;;;;;-145.79;78.32;80555.84;5283494;28;20480;-72
2023/01/23 11:24:30;;;;;;;21.08;17.17;;;;;;;-145.79;78.78;80551.63;5299590;28;20040;-72
2023/01/23 11:27:05;;;;;;;18.80;16.70;;;;;;;-145.79;78.25;80566.47;5289876;28;20028;-72
2023/01/23 11:30:00;;;;;;;19.88;16.67;;;;;;;-145.79;78.42;80562.22;5295377;28;20052;-72
2023/01/23 11:32:54;;;;;;;19.77;15.80;;;;;;;-145.79;78.54;80562.22;5268895;28;20028;-73
2023/01/23 11:35:37;;;;;;;18.65;15.60;;;;;;;-145.79;78.83;80557.97;5266422;28;20043;-72
2023/01/23 11:38:14;;;;;;;33.65;22.23;;;;;;;-145.79;79.21;80536.78;5294996;28;20032;-72
2023/01/23 11:40:46;;;;;;;22.27;17.83;;;;;;;-145.79;78.46;80545.25;5289726;28;20032;-72
2023/01/23 11:43:18;;;;;;;19.38;16.80;;;;;;;-145.79;78.79;80534.66;5286179;28;20028;-72
2023/01/23 11:46:23;;;;;;;20.70;18.05;;;;;;;-145.79;79.23;80541.00;5268755;28;20021;-72
2023/01/23 11:49:16;;;;;;;18.75;16.38;;;;;;;-145.79;78.72;80532.53;5279531;28;20028;-71
2023/01/23 11:51:59;;;;;;;19.58;17.13;;;;;;;-145.79;78.29;80519.81;5269827;28;20044;-72
2023/01/23 11:54:50;;;;;;;18.75;16.63;;;;;;;-145.79;78.27;80519.81;5268518;28;20215;-72
2023/01/23 11:57:58;;;;;;;20.35;17.80;;;;;;;-145.79;78.06;80517.69;5290919;28;20020;-71
2023/01/23 12:00:32;;;;;;;22.35;19.77;;;;;;;-145.79;77.35;80524.03;5285143;28;20115;-72
2023/01/23 12:03:13;;;;;;;21.23;17.08;;;;;;;-145.79;78.11;80528.28;5283962;28;20035;-72
2023/01/23 12:06:19;;;;;;;64.55;49.75;;;;;;;-145.79;81.35;80445.56;5276303;28;20460;-70
2023/01/23 12:09:11;;;;;;;34.00;25.90;;;;;;;-145.79;78.44;80473.13;5278031;28;20036;-70
2023/01/23 12:11:55;;;;;;;19.70;16.52;;;;;;;-145.79;77.76;80475.25;5282998;28;20528;-70
2023/01/23 12:14:46;;;;;;;22.67;16.50;;;;;;;-145.79;77.00;80468.88;5301299;28;20024;-71
2023/01/23 12:17:41;;;;;;;19.63;16.70;;;;;;;-145.79;76.51;80464.66;5295948;28;20074;-69
2023/01/23 12:20:24;;;;;;;19.87;16.77;;;;;;;-145.79;76.13;80481.63;5272881;28;20032;-69
2023/01/23 12:23:14;;;;;;;20.17;15.90;;;;;;;-145.79;76.34;80468.88;5281827;28;20435;-69
2023/01/23 12:25:56;;;;;;;17.65;15.75;;;;;;;-145.79;75.96;80473.13;5284307;28;20039;-68
2023/01/23 12:28:55;;;;;;;16.98;15.20;;;;;;;-145.79;75.87;80464.66;5284814;28;20048;-67
2023/01/23 12:31:44;;;;;;;16.73;14.95;;;;;;;-145.79;76.05;80471.00;5264386;28;20029;-68
2023/01/23 12:34:27;;;;;;;16.95;14.82;;;;;;;-145.79;75.85;80475.25;5286172;28;20048;-69
2023/01/23 12:37:29;;;;;;;17.70;14.85;;;;;;;-145.79;76.04;80466.78;5302987;28;20020;-69
2023/01/23 12:40:21;;;;;;;16.13;13.85;;;;;;;-145.79;75.89;80456.16;5283626;28;20021;-69
2023/01/23 12:43:02;;;;;;;18.48;14.55;;;;;;;-145.79;75.80;80464.66;5283355;28;20028;-70
2023/01/23 12:45:44;;;;;;;18.20;16.30;;;;;;;-145.79;75.95;80458.28;5284648;28;20081;-70
2023/01/23 12:48:27;;;;;;;17.35;15.30;;;;;;;-145.79;75.30;80468.88;5264276;28;20028;-69
2023/01/23 12:51:09;;;;;;;17.33;14.50;;;;;;;-145.79;75.37;80449.78;5295604;28;20052;-69
2023/01/23 12:53:44;;;;;;;17.48;14.90;;;;;;;-145.79;74.91;80451.91;5304299;28;20020;-69
2023/01/23 12:56:22;;;;;;;16.08;14.32;;;;;;;-145.79;74.65;80464.66;5305976;28;20035;-69
2023/01/23 12:59:05;;;;;;;16.00;14.25;;;;;;;-145.79;74.87;80458.28;5304726;28;20028;-69
2023/01/23 13:01:45;;;;;;;16.02;14.32;;;;;;;-145.79;74.17;80475.25;5305338;28;20124;-66
2023/01/23 13:04:19;;;;;;;14.45;12.93;;;;;;;-145.79;76.85;80428.59;5276479;28;20264;-68
2023/01/23 13:07:12;;;;;;;16.80;14.93;;;;;;;-145.79;75.55;80473.13;5274579;28;20036;-69
2023/01/23 13:09:53;;;;;;;21.45;14.90;;;;;;;-145.79;75.65;80462.53;5282751;28;20495;-69
2023/01/23 13:12:27;;;;;;;17.15;14.60;;;;;;;-145.79;75.06;80460.41;5283528;28;20031;-68
2023/01/23 13:15:16;;;;;;;17.70;14.68;;;;;;;-145.79;75.39;80447.69;5284362;28;20423;-69
2023/01/23 13:17:58;;;;;;;16.65;14.82;;;;;;;-145.79;74.86;80443.44;5282648;28;20041;-69
2023/01/23 13:23:36;;;;;;;18.55;15.40;;;;;;;-145.79;75.33;80434.94;5254113;28;20024;-69
2023/01/23 13:26:21;;;;;;;19.05;14.23;;;;;;;-145.79;74.77;80443.44;5281228;28;20039;-70
2023/01/23 13:28:56;;;;;;;16.80;15.10;;;;;;;-145.79;74.96;80456.16;5263944;28;20092;-69
2023/01/23 13:31:45;;;;;;;17.40;15.57;;;;;;;-145.79;75.25;80451.91;5268079;28;20103;-68
2023/01/23 13:34:16;;;;;;;21.58;16.35;;;;;;;-145.79;74.77;80466.78;5270627;28;20368;-68
2023/01/23 13:36:52;;;;;;;126.40;96.78;;;;;;;-145.79;74.33;80468.88;5264545;28;20158;-68
2023/01/23 13:39:36;;;;;;;22.95;18.33;;;;;;;-145.79;74.60;80462.53;5268799;28;20075;-69
2023/01/23 13:42:13;;;;;;;16.90;15.02;;;;;;;-145.79;74.34;80473.13;5263622;28;20025;-69
2023/01/23 13:45:15;;;;;;;17.40;15.07;;;;;;;-145.79;74.36;80471.00;5286023;28;20053;-69
2023/01/23 13:51:21;;;;;;;16.75;15.13;;;;;;;-145.79;74.93;80477.38;5263447;28;20033;-69
2023/01/23 13:56:48;;;;;;;18.58;15.45;;;;;;;-145.79;74.64;80468.88;5263027;28;20044;-69
2023/01/23 13:59:34;;;;;;;18.58;16.30;;;;;;;-145.79;74.66;80460.41;5262802;28;20021;-68
2023/01/23 14:05:26;;;;;;;18.05;14.10;;;;;;;-145.79;79.92;80398.88;5266855;28;20033;-71
2023/01/23 14:08:04;;;;;;;16.05;12.90;;;;;;;-145.79;79.92;80367.06;5297479;28;20071;-71
2023/01/23 14:10:36;;;;;;;13.68;12.25;;;;;;;-145.79;80.06;80326.75;5297424;28;20538;-73
2023/01/23 14:13:14;;;;;;;26.42;23.98;;;;;;;-145.79;77.15;80369.19;5262741;28;20031;-72
2023/01/23 14:18:46;;;;;;;14.82;13.25;;;;;;;-145.79;76.26;80341.63;5263031;28;20033;-71
2023/01/23 14:21:21;;;;;;;17.98;14.73;;;;;;;-145.79;74.29;80369.19;5261666;28;20032;-71
2023/01/23 14:24:00;;;;;;;17.77;15.88;;;;;;;-145.79;74.16;80386.16;5292818;28;20089;-70
2023/01/23 14:26:33;;;;;;;16.55;14.20;;;;;;;-145.79;75.26;80350.09;5304134;28;20479;-71
2023/01/23 14:29:37;;;;;;;15.80;14.10;;;;;;;-145.79;73.36;80371.31;5278396;28;20025;-70
2023/01/23 14:32:26;;;;;;;25.45;21.60;;;;;;;-145.79;75.38;80347.97;5246235;28;20029;-71
2023/01/23 14:34:58;;;;;;;16.25;13.80;;;;;;;-145.79;74.18;80341.63;5270830;28;20037;-71
2023/01/23 14:37:33;;;;;;;15.63;13.70;;;;;;;-145.79;72.09;80394.66;5282179;28;20024;-70
2023/01/23 14:40:14;;;;;;;16.25;13.57;;;;;;;-145.79;71.96;80409.50;5282617;28;20028;-71
2023/01/23 14:42:57;;;;;;;16.38;14.57;;;;;;;-145.79;72.22;80405.25;5271286;28;20478;-71
2023/01/23 14:45:31;;;;;;;15.30;13.70;;;;;;;-145.79;72.49;80396.75;5288424;28;20081;-69
2023/01/23 14:48:04;;;;;;;16.90;15.15;;;;;;;-145.79;72.04;80401.00;5261795;28;20075;-69
2023/01/23 14:50:35;;;;;;;15.82;14.13;;;;;;;-145.79;71.60;80426.47;5265075;28;20039;-70
2023/01/23 14:53:15;;;;;;;18.92;16.35;;;;;;;-145.79;72.63;80426.47;5282711;28;20020;-69
2023/01/23 14:55:48;;;;;;;19.45;16.10;;;;;;;-145.79;72.94;80430.72;5282664;28;20061;-68
2023/01/23 14:58:22;;;;;;;18.60;16.38;;;;;;;-145.79;72.69;80430.72;5282003;28;20123;-69
2023/01/23 15:00:54;;;;;;;16.70;15.02;;;;;;;-145.79;72.93;80415.84;5282395;28;20048;-69
2023/01/23 15:03:41;;;;;;;22.75;19.88;;;;;;;-145.79;73.17;80411.63;5266745;28;20031;-69
2023/01/23 15:06:18;;;;;;;17.35;14.73;;;;;;;-145.79;72.81;80411.63;5277088;28;20060;-70
2023/01/23 15:08:50;;;;;;;17.85;15.02;;;;;;;-145.79;72.56;80401.00;5287883;28;20330;-69
2023/01/23 15:11:26;;;;;;;16.13;14.15;;;;;;;-145.79;72.08;80420.09;5302611;28;20039;-70
2023/01/23 15:14:02;;;;;;;16.52;14.32;;;;;;;-145.79;72.71;80405.25;5303622;28;20030;-71
2023/01/23 15:16:36;;;;;;;15.88;14.10;;;;;;;-145.79;71.99;80439.19;5296358;28;20112;-71
2023/01/23 15:19:22;;;;;;;16.90;14.35;;;;;;;-145.79;72.36;80447.69;5277251;28;20025;-71
2023/01/23 15:22:04;;;;;;;;;;;;;;;-145.79;72.81;80424.34;5288760;28;20032;-70
2023/01/23 15:24:36;;;;;;;25.08;17.30;;;;;;;-145.79;72.05;80451.91;5286238;28;19976;-72
2023/01/23 15:27:24;;;;;;;17.88;15.98;;;;;;;-145.79;72.56;80445.56;5307334;28;20020;-70
2023/01/23 15:30:47;;;;;;;18.05;16.15;;;;;;;-145.79;72.43;80434.94;5292472;28;20033;-69
2023/01/23 15:33:26;;;;;;;17.23;15.52;;;;;;;-145.79;72.43;80428.59;5243108;28;20056;-69
2023/01/23 15:36:06;;;;;;;18.45;15.52;;;;;;;-145.79;72.94;80424.34;5279313;28;20025;-68
2023/01/23 15:38:37;;;;;;;16.10;14.50;;;;;;;-145.79;71.63;80428.59;5270195;28;20021;-68
2023/01/23 15:41:09;;;;;;;13.30;11.93;;;;;;;-145.79;70.11;80434.94;5297877;28;20032;-68
2023/01/23 15:43:41;;;;;;;18.48;16.60;;;;;;;-145.79;69.53;80439.19;5272136;28;20433;-67
2023/01/23 15:46:12;;;;;;;14.88;13.27;;;;;;;-145.79;69.68;80445.56;5282307;28;20017;-69
2023/01/23 15:48:43;;;;;;;13.35;11.93;;;;;;;-145.79;68.69;80451.91;5285970;28;20044;-68
2023/01/23 15:51:15;;;;;;;15.27;13.43;;;;;;;-145.79;69.02;80449.78;5285859;28;20020;-70
2023/01/23 15:53:49;;;;;;;15.13;13.43;;;;;;;-145.79;68.73;80462.53;5275710;28;20021;-68
2023/01/23 15:56:28;;;;;;;14.07;12.35;;;;;;;-145.79;68.79;80475.25;5273980;28;20020;-69
2023/01/23 15:59:01;;;;;;;14.07;12.52;;;;;;;-145.79;69.05;80471.00;5304916;28;20028;-69
2023/01/23 16:01:35;;;;;;;14.82;13.13;;;;;;;-145.79;68.30;80464.66;5285230;28;20581;-70
2023/01/23 16:04:09;;;;;;;13.98;12.50;;;;;;;-145.79;67.97;80473.13;5303269;28;20031;-69
2023/01/23 16:06:41;;;;;;;13.77;12.35;;;;;;;-145.79;68.15;80490.09;5290742;28;20463;-70
2023/01/23 16:09:24;;;;;;;17.63;15.73;;;;;;;-145.79;67.50;80485.84;5277737;28;20047;-70
2023/01/23 16:11:58;;;;;;;15.43;13.82;;;;;;;-145.79;67.79;80487.97;5283919;28;20033;-68
2023/01/23 16:14:35;;;;;;;14.35;12.95;;;;;;;-145.79;67.48;80502.81;5284830;28;20116;-69
2023/01/23 16:17:07;;;;;;;14.75;13.15;;;;;;;-145.79;67.62;80475.25;5283997;28;20028;-69
2023/01/23 16:19:38;;;;;;;16.15;13.07;;;;;;;-145.79;67.29;80500.72;5285353;28;20024;-69
2023/01/23 16:22:27;;;;;;;15.85;13.45;;;;;;;-145.79;68.08;80490.09;5284432;28;20028;-69
2023/01/23 16:24:59;;;;;;;13.30;11.77;;;;;;;-145.79;67.31;80494.34;5285297;28;20115;-71
2023/01/23 16:27:30;;;;;;;14.85;13.25;;;;;;;-145.79;67.39;80511.31;5291356;28;20104;-69
2023/01/23 16:30:01;;;;;;;15.73;14.10;;;;;;;-145.79;68.13;80515.56;5305701;28;20375;-68
2023/01/23 16:32:35;;;;;;;14.80;13.30;;;;;;;-145.79;68.50;80500.72;5275383;28;20028;-68
